Grissom ARB Airport
KGUS : now visible

Airfield :











YOU CAN JOIN US ON...

 
LOGIN :

Register | Disclaimer

   EN    FR    IT 

 









Legend :    VFR   Marginal VFR   IFR   Intensive IFR   Very Intensive IFR
Visi :
Ceiling :
>= 8 km
>= 3000ft
5 to 8 km
1000 to 3000 ft
1500m to 5 km
500 to 1000 ft
800 to 1500m
200 to 500 ft
< 800m
< 200 ft
Symbols :   Thunderstorms  Fog  Heavy snow  Heavy precipitations  Wind > 20 kt






- Airport Elevation : 812 ft


KGUS - Grissom ARB

CURRENT METAR :
  • 291156Z AUTO 19006KT 10SM CLR M01/M01 A3008 RMK AO2 SLP198 T10071008 10007 21012 55002 $

EXPIRED METARs :
  • 291056Z AUTO 21006KT 10SM CLR M01/M01 A3008 RMK AO2 SLP197 T10071008 $
  • 290956Z AUTO 20007KT 10SM CLR M01/M01 A3007 RMK AO2 SLP193 T10111012 $

TAF TAF KGUS
Valid from the 28 at 21:00 until the 30 at 03:00 UTC


282100Z 2821/3003 VRB06KT 9999 SKC QNH2999INS TX09/2821Z TNM06/2913Z LAST NO AMDS AFT 2904 NEXT 2913
KZAU FIR / North America



MET'MAP, your aeronautical weather chart ! - Copyright ORBIFLY December 2007 - Disclaimer

ORBIFLY MET'MAP TEAM :

Programming & Development : Alexandra Zaïnal
Concept & original design : Baudouin d'Aumeries
Assistance for programming : Marc-Olivier Méhu
Technical & hardware support : Manuel Goepfert

Contact : metmap@orbifly.com




SOURCES & CREDITS :

   NOAA       Earth
Advisory